createdAt,value
2017-10-11T00:00:03.056Z,6.00
2017-10-11T00:02:32.075Z,5.50
2017-10-11T00:05:01.119Z,6.00
2017-10-11T00:07:31.058Z,6.30
2017-10-11T00:10:00.111Z,6.10
2017-10-11T00:12:29.152Z,5.37
2017-10-11T00:14:58.196Z,5.00
2017-10-11T00:17:27.236Z,5.90
2017-10-11T00:19:56.275Z,5.33
2017-10-11T00:22:25.327Z,5.70
2017-10-11T00:24:54.336Z,6.33
2017-10-11T00:27:23.371Z,7.13
2017-10-11T00:29:52.402Z,6.37
2017-10-11T00:32:21.443Z,7.00
2017-10-11T00:34:50.505Z,7.33
2017-10-11T00:37:19.516Z,8.70
2017-10-11T00:39:48.547Z,8.13
2017-10-11T00:42:17.590Z,7.70
2017-10-11T00:44:46.659Z,7.57
2017-10-11T00:47:15.692Z,6.50
2017-10-11T00:49:44.722Z,7.80
2017-10-11T00:52:13.763Z,6.90
2017-10-11T00:54:42.819Z,6.27
2017-10-11T00:57:11.930Z,5.97
2017-10-11T00:59:41.962Z,5.20
2017-10-11T01:02:10.998Z,5.57
2017-10-11T01:04:40.030Z,5.10
2017-10-11T01:07:09.055Z,6.17
2017-10-11T01:09:38.086Z,6.07
2017-10-11T01:12:07.110Z,6.30
2017-10-11T01:14:36.365Z,5.70
2017-10-11T01:17:05.395Z,5.40
2017-10-11T01:19:34.435Z,5.40
2017-10-11T01:22:03.491Z,5.00
2017-10-11T01:24:32.494Z,4.73
2017-10-11T01:27:01.570Z,5.00
2017-10-11T01:29:30.665Z,4.57
2017-10-11T01:31:59.670Z,4.20
2017-10-11T01:34:28.704Z,4.53
2017-10-11T01:36:57.731Z,4.40
2017-10-11T01:39:26.814Z,3.93
2017-10-11T01:41:55.841Z,3.73
2017-10-11T01:44:24.875Z,4.20
2017-10-11T01:46:53.919Z,3.80
2017-10-11T01:49:23.855Z,4.00
2017-10-11T01:51:53.017Z,4.10
2017-10-11T01:54:22.067Z,4.57
2017-10-11T01:56:51.116Z,3.80
2017-10-11T01:59:20.170Z,3.97
2017-10-11T02:01:49.198Z,3.70
2017-10-11T02:04:18.234Z,4.37
2017-10-11T02:06:47.276Z,4.63
2017-10-11T02:09:16.322Z,4.90
2017-10-11T02:11:45.364Z,4.30
2017-10-11T02:14:14.394Z,4.87
2017-10-11T02:16:45.395Z,4.70
2017-10-11T02:19:16.436Z,4.50
2017-10-11T02:21:46.370Z,3.73
2017-10-11T02:24:15.405Z,3.93
2017-10-11T02:26:44.462Z,3.60
2017-10-11T02:29:14.475Z,3.67
2017-10-11T02:31:43.546Z,3.80
2017-10-11T02:34:12.562Z,3.87
2017-10-11T02:36:41.613Z,3.27
2017-10-11T02:39:10.653Z,3.70
2017-10-11T02:41:39.680Z,3.83
2017-10-11T02:44:08.731Z,3.63
2017-10-11T02:46:37.772Z,3.93
2017-10-11T02:49:09.841Z,3.47
2017-10-11T02:51:38.897Z,3.70
2017-10-11T02:54:07.914Z,2.80
2017-10-11T02:56:36.957Z,3.17
2017-10-11T02:59:06.037Z,4.00
2017-10-11T03:01:35.050Z,3.30
2017-10-11T03:04:04.099Z,3.40
2017-10-11T03:06:33.126Z,3.17
2017-10-11T03:09:02.158Z,3.33
2017-10-11T03:11:31.258Z,3.50
2017-10-11T03:14:00.303Z,3.50
2017-10-11T03:16:29.347Z,2.60
2017-10-11T03:18:58.383Z,2.60
2017-10-11T03:21:27.859Z,2.63
2017-10-11T03:23:56.903Z,2.97
2017-10-11T03:26:25.954Z,2.87
2017-10-11T03:28:56.914Z,3.10
2017-10-11T03:31:26.027Z,3.10
2017-10-11T03:33:55.055Z,2.30
2017-10-11T03:36:25.110Z,2.50
2017-10-11T03:38:54.135Z,2.60
2017-10-11T03:41:23.213Z,2.50
2017-10-11T03:43:52.250Z,2.50
2017-10-11T03:46:22.312Z,3.60
2017-10-11T03:48:51.375Z,3.33
2017-10-11T03:51:20.412Z,3.40
2017-10-11T03:53:49.444Z,3.50
2017-10-11T03:56:18.509Z,2.90
2017-10-11T03:58:47.535Z,3.83
2017-10-11T04:01:16.583Z,3.43
2017-10-11T04:03:45.633Z,3.10
2017-10-11T04:06:14.698Z,3.80
2017-10-11T04:08:43.738Z,3.10
2017-10-11T04:11:12.771Z,5.03
2017-10-11T04:13:42.819Z,3.77
2017-10-11T04:16:11.842Z,3.90
2017-10-11T04:18:40.985Z,3.50
2017-10-11T04:21:10.015Z,3.90
2017-10-11T04:23:39.064Z,4.03
2017-10-11T04:26:08.109Z,3.13
2017-10-11T04:28:37.151Z,3.80
2017-10-11T04:31:06.229Z,3.40
2017-10-11T04:33:35.271Z,3.87
2017-10-11T04:36:04.282Z,3.43
2017-10-11T04:38:33.327Z,3.77
2017-10-11T04:41:02.358Z,3.70
2017-10-11T04:43:31.534Z,3.57
2017-10-11T04:46:00.590Z,4.10
2017-10-11T04:48:29.614Z,4.57
2017-10-11T04:50:58.651Z,3.60
2017-10-11T04:53:27.683Z,4.00
2017-10-11T04:55:56.755Z,3.83
2017-10-11T04:58:25.797Z,4.80
2017-10-11T05:00:54.855Z,3.53
2017-10-11T05:03:24.918Z,3.37
2017-10-11T05:05:54.124Z,3.40
2017-10-11T05:08:23.601Z,3.70
2017-10-11T05:10:52.623Z,3.30
2017-10-11T05:13:22.664Z,3.73
2017-10-11T05:15:51.715Z,3.90
2017-10-11T05:18:20.752Z,3.40
2017-10-11T05:20:49.804Z,3.20
2017-10-11T05:23:18.842Z,4.50
2017-10-11T05:25:47.868Z,3.13
2017-10-11T05:28:16.935Z,3.40
2017-10-11T05:30:46.868Z,3.40
2017-10-11T05:33:15.909Z,3.30
2017-10-11T05:35:44.935Z,3.20
2017-10-11T05:38:13.971Z,3.53
2017-10-11T05:40:43.600Z,4.50
2017-10-11T05:43:12.613Z,3.30
2017-10-11T05:45:41.638Z,3.13
2017-10-11T05:48:10.679Z,4.37
2017-10-11T05:50:39.714Z,5.17
2017-10-11T05:53:08.755Z,4.53
2017-10-11T05:55:37.803Z,3.40
2017-10-11T05:58:06.834Z,4.17
2017-10-11T06:00:35.879Z,4.50
2017-10-11T06:03:04.968Z,3.30
2017-10-11T06:05:33.979Z,3.70
2017-10-11T06:08:03.003Z,3.70
2017-10-11T06:10:32.965Z,3.57
2017-10-11T06:13:02.032Z,3.70
2017-10-11T06:15:31.102Z,6.43
2017-10-11T06:18:00.167Z,8.40
2017-10-11T06:20:29.222Z,5.40
2017-10-11T06:22:59.172Z,4.67
2017-10-11T06:25:28.232Z,3.50
2017-10-11T06:27:57.325Z,2.90
2017-10-11T06:30:26.348Z,2.60
2017-10-11T06:32:55.430Z,3.03
2017-10-11T06:35:24.492Z,3.07
2017-10-11T06:37:53.566Z,3.00
2017-10-11T06:40:22.596Z,3.03
2017-10-11T06:42:52.627Z,2.67
2017-10-11T06:45:21.783Z,2.37
2017-10-11T06:47:50.828Z,2.20
2017-10-11T06:50:19.869Z,2.03
2017-10-11T06:52:49.021Z,2.40
2017-10-11T06:55:18.134Z,2.10
2017-10-11T06:57:47.191Z,2.10
2017-10-11T07:00:16.218Z,2.20
2017-10-11T07:02:45.270Z,2.20
2017-10-11T07:05:14.329Z,2.20
2017-10-11T07:07:43.355Z,2.10
2017-10-11T07:10:12.960Z,2.93
2017-10-11T07:12:41.993Z,2.63
2017-10-11T07:15:11.016Z,2.50
2017-10-11T07:17:40.056Z,2.00
2017-10-11T07:20:09.110Z,2.07
2017-10-11T07:22:38.286Z,2.20
2017-10-11T07:25:08.296Z,2.10
2017-10-11T07:27:37.346Z,2.10
2017-10-11T07:30:06.410Z,2.30
2017-10-11T07:32:35.439Z,2.30
2017-10-11T07:35:04.527Z,2.10
2017-10-11T07:37:33.569Z,2.07
2017-10-11T07:40:02.617Z,1.90
2017-10-11T07:42:31.668Z,1.70
2017-10-11T07:45:00.741Z,1.63
2017-10-11T07:47:29.799Z,2.00
2017-10-11T07:49:58.902Z,1.80
2017-10-11T07:52:27.945Z,1.47
2017-10-11T07:54:56.997Z,1.60
2017-10-11T07:57:26.030Z,1.67
2017-10-11T07:59:55.111Z,1.63
2017-10-11T08:02:24.152Z,1.47
2017-10-11T08:04:53.201Z,1.43
2017-10-11T08:07:22.276Z,1.73
2017-10-11T08:09:51.323Z,1.63
2017-10-11T08:12:20.367Z,2.17
2017-10-11T08:14:49.432Z,1.60
2017-10-11T08:17:18.446Z,1.80
2017-10-11T08:19:47.792Z,1.80
2017-10-11T08:22:16.827Z,2.10
2017-10-11T08:24:45.858Z,1.90
2017-10-11T08:27:14.915Z,1.60
2017-10-11T08:29:43.966Z,1.90
2017-10-11T08:32:14.022Z,2.00
2017-10-11T08:34:43.085Z,2.07
2017-10-11T08:37:12.107Z,2.27
2017-10-11T08:39:41.170Z,2.03
2017-10-11T08:42:10.210Z,2.50
2017-10-11T08:44:39.282Z,3.37
2017-10-11T08:47:08.401Z,2.73
2017-10-11T08:49:38.111Z,3.33
2017-10-11T08:52:07.243Z,3.20
2017-10-11T08:54:36.276Z,2.67
2017-10-11T08:57:06.395Z,2.57
2017-10-11T08:59:35.462Z,2.47
2017-10-11T09:02:04.513Z,2.60
2017-10-11T09:04:33.568Z,2.53
2017-10-11T09:07:02.608Z,3.37
2017-10-11T09:09:31.703Z,2.83
2017-10-11T09:12:00.748Z,3.30
2017-10-11T09:14:29.799Z,2.83
2017-10-11T09:16:58.838Z,3.33
2017-10-11T09:19:27.891Z,2.90
2017-10-11T09:21:56.928Z,3.83
2017-10-11T09:24:26.013Z,3.50
2017-10-11T09:26:55.075Z,3.33
2017-10-11T09:29:24.111Z,3.53
2017-10-11T09:31:53.162Z,3.90
2017-10-11T09:34:22.197Z,3.10
2017-10-11T09:36:51.284Z,3.20
2017-10-11T09:39:20.319Z,2.80
2017-10-11T09:41:49.395Z,2.53
2017-10-11T09:44:18.444Z,3.57
2017-10-11T09:46:47.491Z,3.27
2017-10-11T09:49:16.536Z,3.10
2017-10-11T09:51:45.602Z,2.67
2017-10-11T09:54:14.657Z,3.27
2017-10-11T09:56:43.707Z,3.73
2017-10-11T09:59:13.729Z,3.60
2017-10-11T10:01:42.784Z,2.80
2017-10-11T10:04:11.822Z,3.07
2017-10-11T10:06:40.858Z,3.13
2017-10-11T10:09:09.922Z,2.30
2017-10-11T10:11:38.977Z,2.93
2017-10-11T10:14:08.037Z,2.10
2017-10-11T10:16:37.075Z,2.13
2017-10-11T10:19:06.121Z,2.60
2017-10-11T10:21:35.178Z,2.60
2017-10-11T10:24:04.237Z,2.40
2017-10-11T10:26:33.283Z,2.43
2017-10-11T10:29:02.331Z,2.03
2017-10-11T10:31:31.449Z,1.70
2017-10-11T10:34:00.505Z,2.20
2017-10-11T10:36:29.568Z,2.33
2017-10-11T10:38:58.672Z,2.00
2017-10-11T10:41:27.711Z,1.70
2017-10-11T10:43:56.780Z,1.70
2017-10-11T10:46:25.815Z,1.37
2017-10-11T10:48:54.939Z,1.57
2017-10-11T10:51:23.958Z,1.67
2017-10-11T10:53:53.007Z,2.03
2017-10-11T10:56:22.052Z,1.80
2017-10-11T10:58:51.101Z,1.90
2017-10-11T11:01:21.413Z,1.80
2017-10-11T11:03:50.458Z,1.80
2017-10-11T11:06:19.499Z,1.67
2017-10-11T11:08:48.558Z,1.77
2017-10-11T11:11:17.619Z,1.70
2017-10-11T11:13:46.738Z,1.63
2017-10-11T11:16:15.792Z,1.73
2017-10-11T11:18:44.876Z,1.47
2017-10-11T11:21:13.942Z,1.30
2017-10-11T11:23:44.051Z,1.40
2017-10-11T11:26:13.118Z,2.03
2017-10-11T11:28:42.204Z,1.70
2017-10-11T11:31:11.232Z,1.23
2017-10-11T11:33:40.633Z,1.40
2017-10-11T11:36:09.663Z,1.50
2017-10-11T11:38:38.723Z,1.67
2017-10-11T11:41:07.764Z,2.07
2017-10-11T11:43:36.811Z,1.53
2017-10-11T11:46:05.854Z,1.70
2017-10-11T11:48:34.904Z,1.43
2017-10-11T11:51:03.990Z,1.90
2017-10-11T11:53:33.059Z,1.83
2017-10-11T11:56:02.116Z,1.50
2017-10-11T11:58:31.170Z,1.73
2017-10-11T12:01:00.220Z,1.70
2017-10-11T12:03:29.339Z,1.77
2017-10-11T12:05:58.494Z,2.13
2017-10-11T12:08:27.543Z,1.87
2017-10-11T12:10:56.586Z,2.57
2017-10-11T12:13:25.640Z,2.17
2017-10-11T12:15:54.832Z,2.03
2017-10-11T12:18:23.940Z,1.57
2017-10-11T12:20:52.994Z,2.20
2017-10-11T12:23:22.060Z,1.90
2017-10-11T12:25:51.147Z,2.23
2017-10-11T12:28:20.183Z,1.50
2017-10-11T12:30:49.234Z,1.40
2017-10-11T12:33:18.430Z,1.43
2017-10-11T12:35:47.508Z,1.53
2017-10-11T12:38:16.576Z,1.80
2017-10-11T12:40:45.620Z,1.30
2017-10-11T12:43:14.675Z,1.43
2017-10-11T12:45:48.206Z,1.40
2017-10-11T12:48:17.299Z,1.50
2017-10-11T12:50:46.354Z,1.57
2017-10-11T12:53:15.384Z,1.50
2017-10-11T12:55:44.447Z,1.27
2017-10-11T12:58:13.521Z,1.50
2017-10-11T13:00:42.571Z,1.80
2017-10-11T13:03:11.658Z,1.97
2017-10-11T13:05:40.714Z,1.40
2017-10-11T13:08:09.770Z,1.60
2017-10-11T13:10:38.823Z,1.63
2017-10-11T13:13:07.892Z,1.90
2017-10-11T13:15:36.973Z,1.50
2017-10-11T13:18:06.558Z,1.60
2017-10-11T13:20:35.604Z,1.57
2017-10-11T13:23:04.655Z,1.57
2017-10-11T13:25:34.655Z,1.77
2017-10-11T13:28:03.694Z,1.83
2017-10-11T13:30:32.759Z,1.83
2017-10-11T13:33:01.825Z,1.80
2017-10-11T13:35:30.870Z,1.83
2017-10-11T13:37:59.924Z,1.63
2017-10-11T13:40:28.969Z,1.40
2017-10-11T13:42:58.023Z,1.30
2017-10-11T13:45:27.104Z,1.20
2017-10-11T13:47:56.154Z,1.40
2017-10-11T13:50:25.227Z,1.37
2017-10-11T13:52:54.318Z,1.67
2017-10-11T13:55:23.397Z,1.37
2017-10-11T13:57:52.447Z,1.17
2017-10-11T14:00:21.504Z,1.10
2017-10-11T14:02:50.752Z,1.83
2017-10-11T14:05:19.871Z,1.33
2017-10-11T14:07:48.971Z,1.30
2017-10-11T14:10:18.034Z,1.33
2017-10-11T14:12:47.095Z,1.37
2017-10-11T14:15:16.217Z,1.10
2017-10-11T14:17:45.262Z,1.50
2017-10-11T14:20:14.298Z,1.27
2017-10-11T14:22:43.352Z,1.20
2017-10-11T14:25:12.394Z,0.83
2017-10-11T14:27:41.451Z,1.80
2017-10-11T14:30:10.502Z,1.60
2017-10-11T14:32:39.671Z,1.33
2017-10-11T14:35:08.711Z,1.13
2017-10-11T14:37:37.763Z,1.43
2017-10-11T14:40:06.829Z,1.20
2017-10-11T14:42:35.878Z,1.20
2017-10-11T14:45:04.932Z,1.23
2017-10-11T14:47:34.003Z,1.20
2017-10-11T14:50:03.024Z,1.30
2017-10-11T14:52:32.080Z,1.10
2017-10-11T14:55:01.150Z,1.80
2017-10-11T14:57:30.207Z,1.03
2017-10-11T14:59:59.258Z,1.20
2017-10-11T15:02:28.332Z,0.93
2017-10-11T15:04:57.427Z,1.40
2017-10-11T15:07:26.536Z,1.03
2017-10-11T15:09:55.630Z,1.10
2017-10-11T15:12:24.673Z,1.03
2017-10-11T15:14:53.744Z,1.23
2017-10-11T15:17:22.862Z,1.20
2017-10-11T15:19:51.907Z,1.33
2017-10-11T15:22:20.963Z,1.40
2017-10-11T15:24:49.997Z,1.30
2017-10-11T15:27:19.061Z,1.27
2017-10-11T15:29:48.311Z,1.23
2017-10-11T15:32:17.354Z,1.57
2017-10-11T15:34:47.430Z,1.20
2017-10-11T15:37:16.562Z,1.33
2017-10-11T15:39:45.647Z,1.20
2017-10-11T15:42:15.788Z,1.17
2017-10-11T15:44:44.880Z,1.60
2017-10-11T15:47:13.947Z,1.23
2017-10-11T15:49:43.038Z,1.27
2017-10-11T15:52:12.087Z,1.70
2017-10-11T15:54:41.233Z,1.40
2017-10-11T15:57:10.290Z,1.40
2017-10-11T15:59:39.390Z,1.57
2017-10-11T16:02:08.441Z,1.63
2017-10-11T16:04:37.479Z,1.80
2017-10-11T16:07:06.532Z,2.30
2017-10-11T16:09:35.592Z,1.23
2017-10-11T16:12:04.651Z,1.70
2017-10-11T16:14:33.700Z,1.87
2017-10-11T16:17:02.741Z,1.60
2017-10-11T16:19:31.866Z,1.40
2017-10-11T16:22:00.939Z,1.33
2017-10-11T16:24:30.045Z,1.80
2017-10-11T16:26:59.212Z,1.83
2017-10-11T16:29:28.255Z,2.40
2017-10-11T16:31:57.381Z,2.00
2017-10-11T16:34:26.440Z,1.40
2017-10-11T16:36:55.549Z,1.67
2017-10-11T16:39:24.590Z,2.03
2017-10-11T16:41:53.660Z,1.50
2017-10-11T16:44:22.704Z,1.63
2017-10-11T16:46:52.753Z,1.90
2017-10-11T16:49:21.797Z,1.60
2017-10-11T16:51:50.887Z,3.43
2017-10-11T16:54:19.987Z,2.33
2017-10-11T16:56:49.023Z,2.40
2017-10-11T16:59:18.099Z,2.67
2017-10-11T17:01:47.851Z,2.63
2017-10-11T17:04:17.041Z,2.53
2017-10-11T17:06:46.101Z,2.10
2017-10-11T17:09:15.210Z,2.30
2017-10-11T17:11:44.384Z,2.43
2017-10-11T17:14:13.441Z,3.17
2017-10-11T17:16:43.485Z,3.07
2017-10-11T17:19:12.560Z,3.80
2017-10-11T17:21:41.592Z,7.33
2017-10-11T17:24:11.760Z,4.60
2017-10-11T17:26:40.808Z,3.30
2017-10-11T17:29:09.916Z,3.07
2017-10-11T17:31:39.243Z,3.57
2017-10-11T17:34:08.283Z,3.57
2017-10-11T17:36:37.357Z,2.90
2017-10-11T17:39:06.401Z,3.70
2017-10-11T17:41:35.487Z,4.00
2017-10-11T17:44:04.580Z,5.20
2017-10-11T17:46:33.621Z,5.90
2017-10-11T17:49:02.874Z,5.70
2017-10-11T17:51:31.910Z,4.93
2017-10-11T17:54:01.065Z,4.90
2017-10-11T17:56:30.507Z,4.63
2017-10-11T17:58:59.593Z,5.70
2017-10-11T18:01:28.668Z,7.13
2017-10-11T18:03:59.692Z,7.40
2017-10-11T18:06:28.745Z,7.23
2017-10-11T18:08:57.782Z,7.87
2017-10-11T18:11:26.825Z,5.00
2017-10-11T18:13:55.896Z,4.83
2017-10-11T18:16:24.947Z,4.50
2017-10-11T18:18:55.141Z,4.63
2017-10-11T18:21:24.250Z,4.60
2017-10-11T18:23:53.305Z,5.47
2017-10-11T18:26:22.368Z,4.17
2017-10-11T18:28:52.455Z,5.60
2017-10-11T18:31:21.523Z,5.57
2017-10-11T18:33:50.610Z,5.60
2017-10-11T18:36:19.679Z,6.43
2017-10-11T18:38:49.467Z,5.90
2017-10-11T18:41:18.511Z,7.17
2017-10-11T18:43:47.567Z,8.20
2017-10-11T18:46:16.602Z,5.80
2017-10-11T18:48:45.654Z,5.83
2017-10-11T18:51:14.699Z,5.60
2017-10-11T18:53:43.740Z,4.70
2017-10-11T18:56:12.958Z,5.20
2017-10-11T18:58:41.998Z,4.60
2017-10-11T19:01:12.269Z,4.97
2017-10-11T19:03:42.227Z,5.30
2017-10-11T19:06:11.263Z,4.53
2017-10-11T19:08:40.319Z,4.20
2017-10-11T19:11:09.356Z,6.47
2017-10-11T19:13:38.413Z,4.33
2017-10-11T19:16:07.443Z,4.40
2017-10-11T19:18:36.662Z,4.23
2017-10-11T19:21:06.132Z,4.10
2017-10-11T19:23:35.177Z,5.37
2017-10-11T19:26:04.222Z,4.30
2017-10-11T19:28:33.363Z,4.47
2017-10-11T19:31:03.110Z,4.17
2017-10-11T19:33:32.661Z,4.83
2017-10-11T19:36:01.787Z,5.27
2017-10-11T19:38:30.854Z,5.07
2017-10-11T19:40:59.922Z,5.63
2017-10-11T19:43:28.959Z,5.93
2017-10-11T19:45:58.043Z,4.80
2017-10-11T19:48:27.146Z,5.20
2017-10-11T19:50:56.193Z,4.90
2017-10-11T19:53:25.237Z,6.47
2017-10-11T19:55:54.647Z,5.20
2017-10-11T19:58:23.687Z,5.50
2017-10-11T20:00:52.814Z,5.40
2017-10-11T20:03:21.867Z,5.13
2017-10-11T20:05:50.913Z,4.27
2017-10-11T20:08:19.962Z,6.30
2017-10-11T20:10:49.013Z,5.37
2017-10-11T20:13:18.039Z,5.30
2017-10-11T20:15:47.083Z,4.30
2017-10-11T20:18:16.126Z,4.57
2017-10-11T20:20:45.224Z,5.37
2017-10-11T20:23:14.238Z,4.07
2017-10-11T20:25:43.269Z,4.40
2017-10-11T20:28:12.322Z,4.87
2017-10-11T20:30:41.362Z,4.57
2017-10-11T20:33:11.403Z,4.37
2017-10-11T20:35:41.398Z,5.00
2017-10-11T20:38:10.436Z,6.57
2017-10-11T20:40:39.473Z,5.30
2017-10-11T20:43:09.491Z,4.90
2017-10-11T20:45:38.539Z,4.30
2017-10-11T20:48:07.730Z,4.60
2017-10-11T20:50:37.341Z,4.00
2017-10-11T20:55:42.238Z,4.30
2017-10-11T20:58:11.458Z,4.10
2017-10-11T21:00:40.486Z,5.13
2017-10-11T21:03:09.622Z,4.37
2017-10-11T21:05:38.657Z,4.40
2017-10-11T21:08:07.690Z,4.70
2017-10-11T21:10:36.718Z,4.60
2017-10-11T21:13:05.750Z,3.97
2017-10-11T21:15:34.798Z,5.50
2017-10-11T21:18:03.825Z,4.43
2017-10-11T21:20:32.981Z,4.30
2017-10-11T21:23:02.003Z,4.60
2017-10-11T21:25:31.043Z,5.00
2017-10-11T21:28:00.079Z,3.90
2017-10-11T21:30:30.251Z,3.93
2017-10-11T21:32:59.282Z,4.40
2017-10-11T21:35:28.372Z,4.60
2017-10-11T21:37:57.418Z,3.80
2017-10-11T21:40:26.462Z,4.67
2017-10-11T21:42:55.503Z,3.53
2017-10-11T21:45:24.565Z,3.93
2017-10-11T21:47:54.202Z,3.40
2017-10-11T21:50:23.240Z,3.60
2017-10-11T21:52:52.279Z,3.30
2017-10-11T21:55:21.344Z,3.27
2017-10-11T21:57:50.388Z,3.20
2017-10-11T22:00:19.434Z,3.00
2017-10-11T22:02:48.751Z,3.43
2017-10-11T22:05:17.941Z,3.53
2017-10-11T22:07:46.979Z,4.13
2017-10-11T22:10:16.026Z,3.57
2017-10-11T22:12:45.071Z,3.43
2017-10-11T22:15:14.115Z,3.70
2017-10-11T22:17:43.173Z,2.93
2017-10-11T22:20:12.234Z,3.60
2017-10-11T22:22:41.279Z,3.57
2017-10-11T22:25:10.358Z,4.50
2017-10-11T22:27:39.395Z,3.20
2017-10-11T22:30:08.460Z,3.20
2017-10-11T22:32:37.492Z,3.53
2017-10-11T22:35:06.550Z,3.63
2017-10-11T22:37:35.586Z,3.30
2017-10-11T22:40:04.632Z,3.77
2017-10-11T22:42:33.667Z,3.37
2017-10-11T22:45:02.858Z,3.13
2017-10-11T22:47:31.892Z,3.00
2017-10-11T22:50:00.970Z,3.33
2017-10-11T22:52:30.002Z,3.30
2017-10-11T22:54:59.033Z,3.50
2017-10-11T22:57:28.068Z,2.90
2017-10-11T22:59:57.098Z,3.47
2017-10-11T23:02:26.150Z,3.63
2017-10-11T23:04:56.171Z,3.00
2017-10-11T23:07:25.202Z,3.47
2017-10-11T23:09:54.255Z,3.57
2017-10-11T23:12:23.284Z,2.90
2017-10-11T23:14:52.339Z,3.30
2017-10-11T23:17:21.378Z,3.47
2017-10-11T23:19:50.437Z,2.87
2017-10-11T23:22:19.483Z,2.87
2017-10-11T23:24:48.554Z,2.70
2017-10-11T23:27:17.609Z,2.90
2017-10-11T23:29:46.648Z,3.10
2017-10-11T23:32:15.694Z,3.20
2017-10-11T23:34:44.741Z,2.77
2017-10-11T23:37:13.782Z,2.70
2017-10-11T23:39:42.870Z,2.70
2017-10-11T23:42:11.894Z,2.97
2017-10-11T23:44:41.865Z,3.13
2017-10-11T23:47:10.918Z,3.07
2017-10-11T23:49:39.950Z,2.80
2017-10-11T23:52:09.003Z,2.70
2017-10-11T23:54:38.963Z,2.77
2017-10-11T23:57:07.994Z,3.00
2017-10-11T23:59:38.575Z,2.80
